Time;durP1;ratioP1;P1;durP2;ratioP2;P2;SDS_P1;SDS_P2;PMS_P1;PMS_P2;Temp;Humidity;BMP_temperature;BMP_pressure;BME280_temperature;BME280_humidity;BME280_pressure;Samples;Min_cycle;Max_cycle;Signal;HPM_P1;HPM_P2
2023/06/07 00:02:26;;;;;;;3.57;2.90;;;13.20;16.80;;;;;;5010455;28;20427;-71
2023/06/07 00:04:51;;;;;;;5.50;3.80;;;13.20;16.30;;;;;;5012329;28;20422;-71
2023/06/07 00:07:18;;;;;;;3.97;3.57;;;13.20;16.30;;;;;;5012442;28;20415;-71
2023/06/07 00:09:43;;;;;;;4.43;3.70;;;13.20;16.30;;;;;;5012412;28;20224;-72
2023/06/07 00:12:10;;;;;;;4.10;3.47;;;13.20;16.30;;;;;;5011939;28;20782;-71
2023/06/07 00:14:36;;;;;;;4.90;4.00;;;13.10;16.20;;;;;;5012256;28;20168;-71
2023/06/07 00:17:02;;;;;;;3.70;3.10;;;13.10;16.20;;;;;;5012271;28;20439;-71
2023/06/07 00:19:29;;;;;;;5.93;3.20;;;13.10;16.60;;;;;;5012121;28;20474;-71
2023/06/07 00:21:55;;;;;;;4.63;3.67;;;13.10;16.70;;;;;;5011876;28;20411;-71
2023/06/07 00:24:21;;;;;;;3.70;2.53;;;13.00;16.90;;;;;;5012153;28;20457;-71
2023/06/07 00:26:47;;;;;;;5.27;3.53;;;13.00;17.00;;;;;;5011975;28;20490;-71
2023/06/07 00:29:14;;;;;;;8.97;3.40;;;13.00;17.10;;;;;;5012011;28;20195;-71
2023/06/07 00:31:40;;;;;;;3.70;3.10;;;13.00;17.10;;;;;;5011792;28;20421;-71
2023/06/07 00:34:06;;;;;;;8.33;3.23;;;13.00;17.30;;;;;;5011953;28;20454;-71
2023/06/07 00:36:35;;;;;;;5.53;4.17;;;12.90;17.60;;;;;;5012315;28;20492;-71
2023/06/07 00:39:02;;;;;;;4.10;3.50;;;12.90;17.80;;;;;;5011746;28;20283;-71
2023/06/07 00:41:28;;;;;;;3.43;3.00;;;12.80;17.80;;;;;;5012230;28;20891;-70
2023/06/07 00:43:53;;;;;;;4.90;3.57;;;12.80;18.10;;;;;;5011916;28;20478;-70
2023/06/07 00:46:21;;;;;;;3.30;2.73;;;12.70;18.20;;;;;;5011903;28;20649;-71
2023/06/07 00:48:51;;;;;;;3.60;3.30;;;12.70;18.60;;;;;;5011692;28;20282;-70
2023/06/07 00:51:18;;;;;;;5.73;3.60;;;12.70;18.90;;;;;;5011566;28;20498;-71
2023/06/07 00:53:46;;;;;;;4.97;4.33;;;12.60;18.90;;;;;;5011260;28;20557;-70
2023/06/07 00:56:12;;;;;;;7.30;3.17;;;12.60;19.40;;;;;;5011445;28;20793;-70
2023/06/07 00:58:38;;;;;;;3.60;3.00;;;12.50;20.10;;;;;;5011398;28;20493;-71
2023/06/07 01:01:04;;;;;;;3.60;3.30;;;12.50;20.10;;;;;;5011240;28;20260;-71
2023/06/07 01:03:30;;;;;;;4.30;3.60;;;12.40;20.00;;;;;;5010757;28;20203;-71
2023/06/07 01:05:58;;;;;;;3.33;2.80;;;12.30;20.00;;;;;;5011105;28;20438;-70
2023/06/07 01:08:25;;;;;;;3.37;3.07;;;12.30;20.70;;;;;;5010909;28;20425;-70
2023/06/07 01:10:51;;;;;;;3.03;2.73;;;12.20;20.50;;;;;;5011167;28;20978;-70
2023/06/07 01:13:18;;;;;;;3.60;2.97;;;12.20;20.30;;;;;;5010605;28;20454;-71
2023/06/07 01:15:44;;;;;;;4.50;3.67;;;12.20;20.50;;;;;;5011122;28;20418;-72
2023/06/07 01:18:10;;;;;;;4.63;3.80;;;12.20;21.30;;;;;;5011355;28;20422;-71
2023/06/07 01:20:38;;;;;;;3.30;3.00;;;12.20;21.30;;;;;;5011705;28;20888;-72
2023/06/07 01:23:09;;;;;;;4.00;3.10;;;12.20;21.70;;;;;;5012015;28;20828;-73
2023/06/07 01:25:34;;;;;;;4.63;3.70;;;12.10;21.60;;;;;;5012310;28;20418;-71
2023/06/07 01:28:01;;;;;;;4.00;3.53;;;12.10;22.50;;;;;;5011666;28;20407;-72
2023/06/07 01:30:31;;;;;;;6.53;4.00;;;12.10;22.80;;;;;;5012697;28;20230;-71
2023/06/07 01:32:57;;;;;;;4.60;3.50;;;12.10;22.80;;;;;;5012654;28;20468;-71
2023/06/07 01:35:24;;;;;;;6.00;4.37;;;12.10;23.30;;;;;;5011425;28;20431;-71
2023/06/07 01:37:51;;;;;;;3.97;3.57;;;12.00;23.50;;;;;;5011871;28;20442;-70
2023/06/07 01:40:18;;;;;;;4.10;3.70;;;12.00;23.40;;;;;;5012231;28;20463;-70
2023/06/07 01:42:45;;;;;;;5.70;4.67;;;11.90;23.20;;;;;;5011877;28;20849;-70
2023/06/07 01:45:11;;;;;;;4.63;3.90;;;11.90;23.90;;;;;;5011531;28;20919;-70
2023/06/07 01:47:38;;;;;;;4.67;4.10;;;11.80;24.30;;;;;;5011064;28;20447;-70
2023/06/07 01:50:05;;;;;;;4.77;4.10;;;11.80;23.80;;;;;;5010995;28;20414;-70
2023/06/07 01:52:30;;;;;;;5.10;4.43;;;11.80;23.80;;;;;;5010405;28;20458;-70
2023/06/07 01:54:56;;;;;;;4.70;3.93;;;11.80;23.80;;;;;;5011202;28;20419;-70
2023/06/07 01:57:39;;;;;;;3.93;3.43;;;11.80;23.80;;;;;;5011417;28;20191;-70
2023/06/07 02:00:10;;;;;;;4.90;3.87;;;11.70;23.70;;;;;;5011151;28;20963;-70
2023/06/07 02:02:49;;;;;;;4.03;3.63;;;11.70;23.70;;;;;;5010797;28;20813;-70
2023/06/07 02:05:17;;;;;;;5.63;4.17;;;11.50;24.60;;;;;;5010963;28;20457;-70
2023/06/07 02:07:53;;;;;;;4.13;3.53;;;11.50;25.20;;;;;;5011894;28;20736;-70
2023/06/07 02:10:25;;;;;;;4.37;3.80;;;11.50;25.10;;;;;;5014815;28;20751;-70
2023/06/07 02:12:53;;;;;;;4.33;3.93;;;11.50;25.40;;;;;;5014289;28;20532;-70
2023/06/07 02:15:20;;;;;;;4.73;4.03;;;11.50;25.30;;;;;;5015031;28;20592;-70
2023/06/07 02:18:01;;;;;;;4.60;4.20;;;11.50;26.10;;;;;;5014704;28;20437;-70
2023/06/07 02:20:27;;;;;;;4.90;4.33;;;11.50;25.90;;;;;;5015580;28;20948;-71
2023/06/07 02:22:54;;;;;;;6.13;3.93;;;11.40;25.80;;;;;;5012618;28;20457;-71
2023/06/07 02:25:20;;;;;;;5.30;4.80;;;11.40;26.40;;;;;;5012775;28;20438;-71
2023/06/07 02:27:45;;;;;;;5.00;3.70;;;11.40;26.50;;;;;;5014249;28;20436;-71
2023/06/07 02:30:11;;;;;;;5.30;4.30;;;11.40;26.50;;;;;;5014315;28;20418;-71
2023/06/07 02:32:39;;;;;;;5.67;3.53;;;11.40;26.70;;;;;;5013708;28;20211;-71
2023/06/07 02:35:07;;;;;;;4.20;3.80;;;11.30;26.60;;;;;;5013643;28;20210;-71
2023/06/07 02:37:33;;;;;;;4.77;4.33;;;11.30;26.70;;;;;;5013886;28;20504;-71
2023/06/07 02:39:58;;;;;;;5.50;4.23;;;11.30;26.90;;;;;;5013707;28;20560;-72
2023/06/07 02:42:24;;;;;;;4.30;3.77;;;11.30;27.10;;;;;;5013409;28;20260;-71
2023/06/07 02:44:49;;;;;;;5.67;4.80;;;11.20;27.50;;;;;;5013767;28;20249;-71
2023/06/07 02:47:15;;;;;;;7.50;5.40;;;11.10;27.50;;;;;;5013931;28;20183;-71
2023/06/07 02:49:41;;;;;;;5.50;4.13;;;11.10;27.50;;;;;;5013487;28;20189;-71
2023/06/07 02:52:07;;;;;;;4.57;4.17;;;11.10;27.90;;;;;;5013345;28;20558;-71
2023/06/07 02:54:36;;;;;;;7.63;4.10;;;11.10;27.50;;;;;;5013491;28;20244;-71
2023/06/07 02:57:01;;;;;;;4.07;3.67;;;11.10;27.50;;;;;;5013784;28;20765;-72
2023/06/07 02:59:27;;;;;;;8.00;4.37;;;11.00;27.40;;;;;;5013525;28;20465;-72
2023/06/07 03:01:53;;;;;;;5.03;4.17;;;11.00;27.80;;;;;;5013139;28;20535;-71
2023/06/07 03:04:20;;;;;;;6.40;4.90;;;11.00;28.10;;;;;;5013375;28;20212;-71
2023/06/07 03:06:46;;;;;;;6.73;4.80;;;11.00;28.50;;;;;;5013659;28;20438;-71
2023/06/07 03:09:14;;;;;;;4.70;4.30;;;10.90;28.90;;;;;;5012534;28;20580;-71
2023/06/07 03:11:40;;;;;;;5.37;4.53;;;10.90;29.30;;;;;;5013165;28;20417;-71
2023/06/07 03:14:05;;;;;;;4.57;3.93;;;10.80;29.70;;;;;;5013301;28;20938;-71
2023/06/07 03:16:32;;;;;;;5.87;4.67;;;10.80;30.00;;;;;;5013011;28;20637;-71
2023/06/07 03:18:57;;;;;;;6.67;3.57;;;10.80;29.80;;;;;;5012845;28;20194;-72
2023/06/07 03:21:23;;;;;;;5.70;5.10;;;10.90;29.80;;;;;;5013040;28;20443;-71
2023/06/07 03:23:49;;;;;;;5.70;4.90;;;10.90;29.70;;;;;;5013271;28;20518;-71
2023/06/07 03:26:16;;;;;;;5.13;4.23;;;10.90;29.50;;;;;;5013257;28;20185;-71
2023/06/07 03:28:42;;;;;;;4.57;3.70;;;10.90;29.50;;;;;;5012673;28;20423;-71
2023/06/07 03:31:08;;;;;;;4.87;4.37;;;10.90;29.50;;;;;;5012947;28;20484;-71
2023/06/07 03:33:33;;;;;;;6.67;5.20;;;10.80;29.50;;;;;;5012605;28;20830;-71
2023/06/07 03:35:59;;;;;;;6.43;4.57;;;10.80;29.70;;;;;;5012905;28;20580;-71
2023/06/07 03:38:24;;;;;;;14.30;4.53;;;10.90;29.90;;;;;;5012795;28;20187;-71
2023/06/07 03:40:50;;;;;;;4.43;3.83;;;10.80;29.60;;;;;;5012941;28;20557;-72
2023/06/07 03:43:15;;;;;;;5.20;3.37;;;10.80;29.40;;;;;;5012431;28;20223;-72
2023/06/07 03:45:41;;;;;;;4.20;3.80;;;10.90;29.40;;;;;;5012839;28;20185;-72
2023/06/07 03:48:06;;;;;;;4.17;3.77;;;10.80;29.20;;;;;;5012828;28;20202;-71
2023/06/07 03:50:32;;;;;;;4.90;4.40;;;10.90;28.80;;;;;;5012901;28;20219;-72
2023/06/07 03:52:57;;;;;;;6.87;5.40;;;10.90;28.50;;;;;;5012319;28;20209;-72
2023/06/07 03:55:23;;;;;;;5.27;4.67;;;10.90;28.60;;;;;;5012896;28;20240;-72
2023/06/07 03:57:48;;;;;;;5.77;4.30;;;10.90;28.10;;;;;;5012260;28;20189;-72
2023/06/07 04:00:15;;;;;;;7.40;4.60;;;10.90;28.60;;;;;;5012145;28;20206;-72
2023/06/07 04:02:43;;;;;;;4.97;4.47;;;10.90;28.10;;;;;;5012225;28;20214;-72
2023/06/07 04:05:10;;;;;;;6.80;4.80;;;10.90;28.40;;;;;;5012953;28;20480;-72
2023/06/07 04:07:35;;;;;;;7.77;5.10;;;10.90;28.10;;;;;;5012315;28;20418;-72
2023/06/07 04:10:01;;;;;;;4.90;4.17;;;11.00;27.90;;;;;;5012449;28;20423;-71
2023/06/07 04:12:26;;;;;;;4.67;4.07;;;11.00;27.50;;;;;;5011266;28;20325;-71
2023/06/07 04:14:52;;;;;;;5.53;4.03;;;11.00;27.40;;;;;;5011828;28;20187;-71
2023/06/07 04:17:17;;;;;;;5.10;3.87;;;11.00;27.40;;;;;;5012150;28;20182;-71
2023/06/07 04:19:43;;;;;;;3.80;3.40;;;11.10;27.40;;;;;;5012180;28;20371;-71
2023/06/07 04:22:08;;;;;;;6.30;4.63;;;11.10;27.50;;;;;;5011465;28;20188;-71
2023/06/07 04:24:34;;;;;;;5.07;3.93;;;11.10;27.50;;;;;;5012125;28;20251;-71
2023/06/07 04:27:01;;;;;;;7.57;4.33;;;11.10;27.50;;;;;;5011801;28;20179;-71
2023/06/07 04:29:26;;;;;;;6.60;4.23;;;11.20;27.50;;;;;;5012726;28;20183;-72
2023/06/07 04:31:56;;;;;;;5.63;3.73;;;11.30;27.60;;;;;;5013707;28;20411;-72
2023/06/07 04:34:25;;;;;;;4.20;3.73;;;11.40;26.70;;;;;;5013892;28;20697;-72
2023/06/07 04:36:52;;;;;;;7.80;4.70;;;11.50;26.90;;;;;;5010718;28;20956;-72
2023/06/07 04:39:18;;;;;;;4.70;4.20;;;11.60;26.10;;;;;;5011685;28;20976;-72
2023/06/07 04:41:45;;;;;;;5.30;4.10;;;11.60;25.80;;;;;;5012717;28;20500;-72
2023/06/07 04:44:15;;;;;;;12.20;4.70;;;11.80;25.90;;;;;;5013447;28;20437;-72
2023/06/07 04:46:40;;;;;;;5.57;4.33;;;11.90;25.30;;;;;;5012933;28;20439;-70
2023/06/07 04:49:07;;;;;;;4.20;3.87;;;12.00;24.80;;;;;;5012597;28;20418;-73
2023/06/07 04:51:32;;;;;;;4.00;3.67;;;12.00;23.90;;;;;;5012012;28;20179;-71
2023/06/07 04:54:01;;;;;;;5.93;4.67;;;12.20;24.10;;;;;;5011828;28;20441;-71
2023/06/07 04:56:30;;;;;;;4.30;3.63;;;12.20;23.40;;;;;;5011576;28;20182;-71
2023/06/07 04:58:56;;;;;;;5.43;4.23;;;12.40;22.90;;;;;;5011278;28;20446;-70
2023/06/07 05:01:22;;;;;;;3.97;3.57;;;12.50;22.70;;;;;;5011207;28;20446;-69
2023/06/07 05:03:49;;;;;;;3.90;3.50;;;12.60;22.20;;;;;;5010854;28;20566;-71
2023/06/07 05:06:17;;;;;;;4.37;3.50;;;12.70;21.80;;;;;;5010924;28;20427;-71
2023/06/07 05:08:43;;;;;;;4.50;4.10;;;12.90;21.10;;;;;;5011165;28;20406;-71
2023/06/07 05:11:08;;;;;;;5.67;4.60;;;13.00;20.60;;;;;;5011401;28;20423;-71
2023/06/07 05:13:34;;;;;;;4.90;4.40;;;13.10;20.10;;;;;;5010907;28;20454;-71
2023/06/07 05:16:01;;;;;;;4.60;3.80;;;13.20;19.90;;;;;;5011168;28;20206;-71
2023/06/07 05:18:27;;;;;;;4.23;3.50;;;13.30;19.20;;;;;;5011085;28;20172;-71
2023/06/07 05:20:53;;;;;;;4.97;4.43;;;13.40;19.00;;;;;;5010948;28;20452;-71
2023/06/07 05:23:18;;;;;;;6.13;5.03;;;13.60;18.70;;;;;;5010401;28;20439;-71
2023/06/07 05:25:44;;;;;;;5.00;3.80;;;13.70;18.30;;;;;;5011043;28;20176;-71
2023/06/07 05:28:10;;;;;;;4.53;4.13;;;14.00;17.20;;;;;;5010637;28;20226;-70
2023/06/07 05:30:36;;;;;;;4.27;3.47;;;14.10;15.90;;;;;;5010586;28;20558;-71
2023/06/07 05:33:02;;;;;;;5.80;4.33;;;14.30;15.00;;;;;;5010333;28;20576;-71
2023/06/07 05:35:28;;;;;;;7.37;4.30;;;14.50;14.90;;;;;;5010800;28;20177;-70
2023/06/07 05:37:53;;;;;;;4.60;4.00;;;14.70;14.40;;;;;;5010752;28;20411;-70
2023/06/07 05:40:20;;;;;;;5.37;4.00;;;14.90;13.00;;;;;;5010776;28;20215;-69
2023/06/07 05:42:45;;;;;;;6.53;4.80;;;15.10;12.40;;;;;;5013006;28;20664;-69
2023/06/07 05:45:11;;;;;;;4.30;3.20;;;15.30;12.20;;;;;;5014613;28;20421;-70
2023/06/07 05:47:37;;;;;;;5.80;3.67;;;15.90;11.00;;;;;;5014147;28;20430;-70
2023/06/07 05:50:04;;;;;;;5.77;3.33;;;16.60;9.30;;;;;;5014795;28;20183;-70
2023/06/07 05:52:30;;;;;;;4.40;4.00;;;17.40;6.80;;;;;;5014357;28;20280;-70
2023/06/07 05:54:57;;;;;;;3.70;3.40;;;19.10;4.20;;;;;;5014728;28;20499;-69
2023/06/07 05:57:23;;;;;;;4.90;4.00;;;21.60;1.00;;;;;;5014202;28;20271;-69
2023/06/07 05:59:48;;;;;;;7.30;4.90;;;23.60;1.00;;;;;;5014464;28;20542;-69
2023/06/07 06:02:16;;;;;;;4.67;4.03;;;25.90;1.00;;;;;;5013978;28;20179;-70
2023/06/07 06:04:43;;;;;;;5.07;4.43;;;27.60;1.00;;;;;;5014840;28;20169;-70
2023/06/07 06:07:09;;;;;;;5.37;4.87;;;28.60;1.00;;;;;;5014384;28;20449;-70
2023/06/07 06:09:34;;;;;;;6.07;5.47;;;29.70;1.00;;;;;;5014322;28;20943;-70
2023/06/07 06:12:00;;;;;;;7.13;6.37;;;31.30;1.00;;;;;;5013366;28;20275;-70
2023/06/07 06:14:27;;;;;;;23.50;8.30;;;32.10;1.00;;;;;;5013948;28;20586;-70
2023/06/07 06:16:52;;;;;;;11.50;7.30;;;32.60;1.00;;;;;;5014408;28;20564;-72
2023/06/07 06:19:18;;;;;;;6.20;5.80;;;32.40;1.00;;;;;;5016382;28;20464;-70
2023/06/07 06:21:43;;;;;;;8.50;5.77;;;32.50;1.00;;;;;;5014186;28;20188;-72
2023/06/07 06:24:09;;;;;;;6.00;5.60;;;33.80;1.00;;;;;;5014050;28;20199;-70
2023/06/07 06:26:35;;;;;;;6.50;5.97;;;34.10;1.00;;;;;;5013819;28;20188;-70
2023/06/07 06:29:00;;;;;;;6.60;6.10;;;34.30;1.00;;;;;;5014426;28;20289;-70
2023/06/07 06:31:26;;;;;;;5.97;5.57;;;34.30;1.00;;;;;;5013700;28;20202;-70
2023/06/07 06:33:52;;;;;;;13.60;5.57;;;34.30;1.00;;;;;;5013664;28;20211;-69
2023/06/07 06:36:17;;;;;;;5.97;5.47;;;34.90;1.00;;;;;;5013862;28;20259;-69
2023/06/07 06:38:43;;;;;;;6.63;6.10;;;35.50;1.00;;;;;;5013720;28;20223;-70
2023/06/07 06:41:12;;;;;;;14.23;6.60;;;35.40;1.00;;;;;;5013435;28;20180;-70
2023/06/07 06:43:38;;;;;;;7.00;6.30;;;35.10;1.00;;;;;;5013689;28;20288;-70
2023/06/07 06:46:03;;;;;;;7.07;6.50;;;34.90;1.00;;;;;;5013946;28;20518;-69
2023/06/07 06:48:29;;;;;;;6.90;6.30;;;34.90;1.00;;;;;;5014078;28;20259;-69
2023/06/07 06:50:54;;;;;;;6.93;6.43;;;34.70;1.00;;;;;;5013664;28;20211;-69
2023/06/07 06:53:20;;;;;;;7.40;5.70;;;33.90;1.00;;;;;;5010082;28;20208;-69
2023/06/07 06:55:45;;;;;;;5.83;5.47;;;33.60;1.00;;;;;;4992457;28;20181;-69
2023/06/07 06:58:11;;;;;;;8.43;6.40;;;33.90;1.00;;;;;;4994133;28;20180;-70
2023/06/07 07:00:40;;;;;;;6.47;5.90;;;33.60;1.00;;;;;;4993382;28;20286;-69
2023/06/07 07:03:05;;;;;;;5.47;5.07;;;34.70;1.00;;;;;;4993461;28;20203;-69
2023/06/07 07:05:31;;;;;;;7.00;6.50;;;35.40;1.00;;;;;;5000379;28;20423;-69
2023/06/07 07:07:57;;;;;;;6.87;6.17;;;33.10;1.00;;;;;;5000697;28;20198;-69
2023/06/07 07:10:23;;;;;;;6.23;5.70;;;33.50;1.00;;;;;;5009802;28;20184;-68
2023/06/07 07:12:48;;;;;;;16.70;8.10;;;35.10;1.00;;;;;;4997063;28;20865;-69
2023/06/07 07:15:14;;;;;;;6.83;5.93;;;35.60;1.00;;;;;;4997870;28;20194;-68
2023/06/07 07:17:47;;;;;;;6.07;5.67;;;35.70;1.00;;;;;;5009622;28;20199;-70
2023/06/07 07:20:14;;;;;;;5.43;5.03;;;35.90;1.00;;;;;;5009141;28;20555;-69
2023/06/07 07:22:41;;;;;;;6.47;5.77;;;36.30;1.00;;;;;;5007445;28;20501;-69
2023/06/07 07:25:07;;;;;;;5.30;4.90;;;35.40;1.00;;;;;;5008940;28;20439;-69
2023/06/07 07:27:33;;;;;;;6.00;5.50;;;34.50;1.00;;;;;;5009260;28;20576;-69
2023/06/07 07:29:59;;;;;;;5.90;5.43;;;33.50;1.00;;;;;;5007158;28;20812;-69
2023/06/07 07:32:25;;;;;;;5.70;5.20;;;34.60;1.00;;;;;;5008369;28;20270;-68
2023/06/07 07:34:50;;;;;;;6.07;5.57;;;34.40;1.00;;;;;;5008513;28;20918;-69
2023/06/07 07:37:17;;;;;;;5.27;4.87;;;34.50;1.00;;;;;;5008716;28;20184;-69
2023/06/07 07:39:42;;;;;;;5.73;5.10;;;34.60;1.00;;;;;;5009318;28;20211;-69
2023/06/07 07:42:08;;;;;;;5.03;4.73;;;35.20;1.00;;;;;;5011944;28;20844;-69
2023/06/07 07:44:34;;;;;;;5.73;5.23;;;35.90;1.00;;;;;;5012781;28;20187;-72
2023/06/07 07:47:00;;;;;;;6.10;5.53;;;36.00;1.00;;;;;;5012283;28;20171;-70
2023/06/07 07:49:25;;;;;;;6.33;5.80;;;35.60;1.00;;;;;;5000138;28;20924;-71
2023/06/07 07:51:51;;;;;;;5.57;5.17;;;36.20;1.00;;;;;;4992667;28;20185;-70
2023/06/07 07:54:17;;;;;;;5.40;5.00;;;36.90;1.00;;;;;;4992486;28;20677;-70
2023/06/07 07:56:43;;;;;;;5.60;5.20;;;38.10;1.00;;;;;;4992794;28;20222;-71
2023/06/07 07:59:09;;;;;;;6.27;5.43;;;38.40;1.00;;;;;;4992407;28;20498;-70
2023/06/07 08:01:34;;;;;;;5.70;5.30;;;38.20;1.00;;;;;;4995557;28;20459;-70
2023/06/07 08:04:00;;;;;;;6.50;5.90;;;37.60;1.00;;;;;;4997175;28;20254;-71
2023/06/07 08:06:25;;;;;;;6.40;5.80;;;37.60;1.00;;;;;;5004637;28;20191;-68
2023/06/07 08:08:51;;;;;;;6.20;5.60;;;37.80;1.00;;;;;;5004442;28;20238;-69
2023/06/07 08:11:17;;;;;;;5.53;5.23;;;37.80;1.00;;;;;;4992412;28;20189;-68
2023/06/07 08:13:43;;;;;;;5.93;5.53;;;38.00;1.00;;;;;;5001983;28;20446;-68
2023/06/07 08:16:08;;;;;;;4.80;4.50;;;38.10;1.00;;;;;;5011836;28;20511;-68
2023/06/07 08:18:34;;;;;;;5.43;5.03;;;37.90;1.00;;;;;;5011708;28;20538;-68
2023/06/07 08:21:00;;;;;;;12.73;5.40;;;38.00;1.00;;;;;;5003971;28;20625;-68
2023/06/07 08:23:26;;;;;;;5.30;4.80;;;37.50;1.00;;;;;;4991817;28;20201;-69
2023/06/07 08:25:52;;;;;;;6.10;5.60;;;37.30;1.00;;;;;;4992112;28;20418;-68
2023/06/07 08:28:18;;;;;;;5.87;5.37;;;37.10;1.00;;;;;;4992279;28;20854;-68
2023/06/07 08:30:43;;;;;;;5.57;5.17;;;37.70;1.00;;;;;;4991756;28;20181;-68
2023/06/07 08:33:09;;;;;;;5.60;5.10;;;37.60;1.00;;;;;;5010879;28;21013;-69
2023/06/07 08:35:34;;;;;;;5.07;4.77;;;37.20;1.00;;;;;;5011228;28;20195;-68
2023/06/07 08:38:00;;;;;;;5.07;4.77;;;36.70;1.00;;;;;;5011333;28;20176;-68
2023/06/07 08:40:26;;;;;;;4.73;4.43;;;37.20;1.00;;;;;;5010792;28;20204;-68
2023/06/07 08:42:52;;;;;;;4.80;4.50;;;37.30;1.00;;;;;;5010624;28;20195;-68
2023/06/07 08:45:17;;;;;;;5.63;5.13;;;36.70;1.00;;;;;;5011156;28;20414;-68
2023/06/07 08:47:44;;;;;;;6.23;4.73;;;37.40;1.00;;;;;;5010544;28;20183;-68
2023/06/07 08:50:14;;;;;;;5.27;4.87;;;37.80;1.00;;;;;;5010517;28;20613;-68
2023/06/07 08:52:48;;;;;;;6.40;5.17;;;37.60;1.00;;;;;;5011020;28;20853;-68
2023/06/07 08:55:13;;;;;;;5.17;4.77;;;36.80;1.00;;;;;;5011565;28;20423;-68
2023/06/07 08:57:39;;;;;;;4.97;4.67;;;37.30;1.00;;;;;;5011627;28;20421;-68
2023/06/07 09:00:10;;;;;;;4.93;4.53;;;36.70;1.00;;;;;;5011525;28;20230;-68
2023/06/07 09:02:36;;;;;;;5.13;4.73;;;36.10;1.00;;;;;;5010879;28;21031;-68
2023/06/07 09:05:06;;;;;;;5.73;5.30;;;36.60;1.00;;;;;;5011269;28;20501;-68
2023/06/07 09:07:32;;;;;;;5.50;5.10;;;37.10;1.00;;;;;;5011166;28;20469;-68
2023/06/07 09:09:58;;;;;;;4.80;4.50;;;36.30;1.00;;;;;;5011242;28;20426;-68
2023/06/07 09:12:23;;;;;;;5.57;5.13;;;36.30;1.00;;;;;;5010695;28;20431;-68
2023/06/07 09:14:50;;;;;;;4.97;4.57;;;35.60;1.00;;;;;;5011290;28;20183;-68
2023/06/07 09:17:16;;;;;;;5.30;5.00;;;34.00;1.00;;;;;;5010739;28;20194;-68
2023/06/07 09:19:42;;;;;;;5.40;5.00;;;31.30;1.00;;;;;;5011058;28;20466;-68
2023/06/07 09:22:13;;;;;;;5.70;5.30;;;28.80;1.00;;;;;;5010423;28;20275;-68
2023/06/07 09:24:40;;;;;;;5.83;5.43;;;27.40;1.00;;;;;;5011201;28;20424;-68
2023/06/07 09:27:07;;;;;;;6.40;5.80;;;25.90;1.00;;;;;;5011200;28;20410;-68
2023/06/07 09:29:43;;;;;;;5.70;5.30;;;25.10;1.00;;;;;;5011047;28;20494;-68
2023/06/07 09:32:25;;;;;;;5.93;5.17;;;24.70;1.00;;;;;;5010539;28;20745;-67
2023/06/07 09:34:53;;;;;;;5.83;5.33;;;24.40;1.00;;;;;;5010875;28;20431;-67
2023/06/07 09:37:20;;;;;;;5.97;5.57;;;24.30;1.00;;;;;;5010882;28;20422;-67
2023/06/07 09:39:52;;;;;;;6.70;5.30;;;24.00;1.00;;;;;;5010822;28;20486;-67
2023/06/07 09:42:18;;;;;;;5.27;4.87;;;24.00;1.00;;;;;;5010548;28;20927;-67
2023/06/07 09:44:43;;;;;;;5.37;4.87;;;24.20;1.00;;;;;;5010995;28;20411;-68
2023/06/07 09:47:22;;;;;;;6.20;5.57;;;23.90;1.00;;;;;;5010741;28;20171;-67
2023/06/07 09:49:54;;;;;;;6.23;5.07;;;24.20;1.00;;;;;;5011119;28;20184;-67
2023/06/07 09:52:20;;;;;;;5.67;5.30;;;24.30;1.00;;;;;;5010917;28;20455;-67
2023/06/07 09:54:46;;;;;;;5.63;5.10;;;24.20;1.00;;;;;;5010932;28;20446;-67
2023/06/07 09:57:31;;;;;;;6.07;5.63;;;24.00;1.00;;;;;;5010863;28;20222;-67
2023/06/07 10:00:14;;;;;;;6.40;5.80;;;24.20;1.00;;;;;;5010758;28;20228;-67
2023/06/07 10:02:42;;;;;;;5.70;5.30;;;24.20;1.00;;;;;;5010295;28;20419;-67
2023/06/07 10:05:08;;;;;;;6.00;5.53;;;24.40;1.00;;;;;;5010638;28;20475;-67
2023/06/07 10:07:48;;;;;;;5.87;5.43;;;24.30;1.00;;;;;;5010457;28;20473;-67
2023/06/07 10:10:17;;;;;;;5.10;4.80;;;24.20;1.00;;;;;;5010414;28;20422;-67
2023/06/07 10:12:46;;;;;;;5.00;4.70;;;24.20;1.00;;;;;;5010075;28;20438;-67
2023/06/07 10:15:20;;;;;;;5.83;5.33;;;24.30;1.00;;;;;;5010390;28;20411;-68
2023/06/07 10:18:10;;;;;;;5.13;4.80;;;24.20;1.00;;;;;;5009351;28;20512;-67
2023/06/07 10:20:44;;;;;;;5.83;5.33;;;24.20;1.00;;;;;;5010894;28;20542;-68
2023/06/07 10:23:26;;;;;;;6.90;6.30;;;24.40;1.00;;;;;;5010598;28;20427;-67
2023/06/07 10:26:03;;;;;;;6.23;5.67;;;24.70;1.00;;;;;;5010790;28;20446;-67
2023/06/07 10:28:40;;;;;;;6.07;5.47;;;24.80;1.00;;;;;;5010824;28;20827;-67
2023/06/07 10:31:13;;;;;;;6.40;5.80;;;24.80;1.00;;;;;;5013886;28;20411;-68
2023/06/07 10:33:40;;;;;;;5.17;4.77;;;24.60;1.00;;;;;;5028318;22;20506;-70
2023/06/07 10:36:08;;;;;;;4.87;4.57;;;24.60;1.00;;;;;;4995918;28;20415;-71
2023/06/07 10:38:33;;;;;;;9.67;7.87;;;24.50;1.00;;;;;;4995844;28;20412;-68
2023/06/07 10:41:01;;;;;;;6.20;5.40;;;24.60;1.00;;;;;;4996047;28;20564;-69
2023/06/07 10:43:30;;;;;;;7.10;6.50;;;24.70;1.00;;;;;;4994287;28;20205;-69
2023/06/07 10:46:23;;;;;;;5.53;4.60;;;24.60;1.00;;;;;;4996109;28;20419;-70
2023/06/07 10:48:54;;;;;;;5.87;5.37;;;24.50;1.00;;;;;;4995609;28;20415;-71
2023/06/07 10:51:44;;;;;;;8.37;7.57;;;24.50;1.00;;;;;;4995575;28;20931;-69
2023/06/07 10:54:30;;;;;;;6.90;5.93;;;24.60;1.00;;;;;;4984702;28;20791;-70
2023/06/07 10:56:56;;;;;;;6.70;6.20;;;24.80;1.00;;;;;;4996034;28;20408;-70
2023/06/07 10:59:23;;;;;;;6.07;5.57;;;24.70;1.00;;;;;;4997564;28;20452;-69
2023/06/07 11:01:50;;;;;;;5.57;5.07;;;24.80;1.00;;;;;;4996617;28;20424;-71
2023/06/07 11:04:33;;;;;;;6.47;5.80;;;25.00;1.00;;;;;;4995381;28;20442;-69
2023/06/07 11:07:26;;;;;;;5.90;5.50;;;24.90;1.00;;;;;;4995489;28;20415;-70
2023/06/07 11:10:04;;;;;;;19.00;6.83;;;24.90;1.00;;;;;;4995297;28;20404;-69
2023/06/07 11:12:36;;;;;;;9.57;8.63;;;25.00;1.00;;;;;;4995062;28;20416;-69
2023/06/07 11:15:24;;;;;;;9.43;5.77;;;25.10;1.00;;;;;;4995152;28;20416;-69
2023/06/07 11:17:54;;;;;;;5.50;5.10;;;25.30;1.00;;;;;;4995111;28;20967;-69
2023/06/07 11:20:43;;;;;;;6.17;5.67;;;25.40;1.00;;;;;;4994907;28;20459;-68
2023/06/07 11:23:28;;;;;;;7.13;6.10;;;25.30;1.00;;;;;;4994809;28;20864;-69
2023/06/07 11:26:10;;;;;;;5.63;5.23;;;25.30;1.00;;;;;;4995071;28;20427;-68
2023/06/07 11:28:41;;;;;;;5.60;5.07;;;25.40;1.00;;;;;;4995290;28;20970;-70
2023/06/07 11:31:13;;;;;;;5.67;5.17;;;25.30;1.00;;;;;;4993979;28;20430;-69
2023/06/07 11:33:42;;;;;;;5.83;5.30;;;25.30;1.00;;;;;;4994955;28;20458;-68
2023/06/07 11:36:10;;;;;;;13.23;8.03;;;25.30;1.00;;;;;;4994663;28;20427;-68
2023/06/07 11:38:37;;;;;;;6.73;5.70;;;25.60;1.00;;;;;;4995019;28;20432;-69
2023/06/07 11:41:05;;;;;;;6.00;5.50;;;25.90;1.00;;;;;;4994549;28;20431;-69
2023/06/07 11:43:31;;;;;;;5.50;5.07;;;25.70;1.00;;;;;;4994322;28;20816;-69
2023/06/07 11:45:58;;;;;;;6.40;5.90;;;25.90;1.00;;;;;;4993158;28;20486;-69
2023/06/07 11:48:27;;;;;;;5.30;4.93;;;25.90;1.00;;;;;;4994498;28;20428;-69
2023/06/07 11:50:53;;;;;;;5.47;5.07;;;25.80;1.00;;;;;;4994362;28;20426;-69
2023/06/07 11:53:20;;;;;;;6.80;6.20;;;25.80;1.00;;;;;;4993806;28;20443;-69
2023/06/07 11:55:46;;;;;;;5.27;4.83;;;25.90;1.00;;;;;;4994562;28;20542;-70
2023/06/07 11:58:12;;;;;;;6.23;5.73;;;26.00;1.00;;;;;;4994155;28;20840;-70
2023/06/07 12:00:37;;;;;;;5.27;4.77;;;25.90;1.00;;;;;;4994201;28;20459;-68
2023/06/07 12:03:04;;;;;;;9.40;7.90;;;26.10;1.00;;;;;;4993881;28;20454;-68
2023/06/07 12:05:31;;;;;;;6.13;5.50;;;26.40;1.00;;;;;;4993932;28;20179;-69
2023/06/07 12:08:03;;;;;;;9.50;5.50;;;26.60;1.00;;;;;;4994035;28;20474;-69
2023/06/07 12:10:28;;;;;;;6.57;6.07;;;26.40;1.00;;;;;;4993979;28;20430;-69
2023/06/07 12:13:07;;;;;;;7.37;6.60;;;26.30;1.00;;;;;;4992269;28;21131;-71
2023/06/07 12:15:34;;;;;;;5.80;5.40;;;26.10;1.00;;;;;;4994016;28;20256;-69
2023/06/07 12:18:01;;;;;;;6.47;5.97;;;26.00;1.00;;;;;;4993643;28;20435;-68
2023/06/07 12:20:29;;;;;;;6.17;5.67;;;26.00;1.00;;;;;;4993661;28;20815;-68
2023/06/07 12:23:04;;;;;;;5.90;5.40;;;25.90;1.00;;;;;;4993583;28;20448;-69
2023/06/07 12:25:29;;;;;;;6.10;5.70;;;25.70;1.00;;;;;;4993945;28;20422;-69
2023/06/07 12:27:55;;;;;;;5.20;4.90;;;25.90;1.00;;;;;;4992364;28;20416;-69
2023/06/07 12:30:21;;;;;;;6.43;6.00;;;25.90;1.00;;;;;;4993691;28;20188;-68
2023/06/07 12:32:47;;;;;;;6.77;6.17;;;25.90;1.00;;;;;;4993291;28;20215;-68
2023/06/07 12:35:14;;;;;;;6.60;5.67;;;25.80;1.00;;;;;;4993767;28;20187;-68
2023/06/07 12:37:39;;;;;;;8.67;6.70;;;25.90;1.00;;;;;;4993945;28;20814;-67
2023/06/07 12:40:08;;;;;;;5.90;5.50;;;25.90;1.00;;;;;;4993256;28;20517;-68
2023/06/07 12:42:40;;;;;;;5.83;5.43;;;26.00;1.00;;;;;;4991412;28;20177;-68
2023/06/07 12:45:07;;;;;;;7.10;6.50;;;26.10;1.00;;;;;;4991991;28;20494;-68
2023/06/07 12:47:33;;;;;;;5.80;5.20;;;26.30;1.00;;;;;;4993406;28;20416;-69
2023/06/07 12:49:58;;;;;;;9.13;6.30;;;26.30;1.00;;;;;;4993379;28;20461;-70
2023/06/07 12:52:24;;;;;;;5.97;5.40;;;26.30;1.00;;;;;;4992352;28;20176;-67
2023/06/07 12:54:50;;;;;;;6.00;5.50;;;26.00;1.00;;;;;;4991787;28;20288;-68
2023/06/07 12:57:15;;;;;;;6.30;5.50;;;26.10;1.00;;;;;;4993084;28;20173;-68